sensor_id;sensor_type;location;lat;lon;timestamp;P1;durP1;ratioP1;P2;durP2;ratioP2
56477;SDS011;42382;53.210;5.772;2022-07-23T00:00:56;5.38;;;3.47;;
56477;SDS011;42382;53.210;5.772;2022-07-23T00:03:22;5.32;;;3.55;;
56477;SDS011;42382;53.210;5.772;2022-07-23T00:05:48;7.20;;;3.08;;
56477;SDS011;42382;53.210;5.772;2022-07-23T00:08:13;4.93;;;3.13;;
56477;SDS011;42382;53.210;5.772;2022-07-23T00:10:39;7.95;;;3.55;;
56477;SDS011;42382;53.210;5.772;2022-07-23T00:13:05;4.60;;;3.50;;
56477;SDS011;42382;53.210;5.772;2022-07-23T00:15:30;6.00;;;3.47;;
56477;SDS011;42382;53.210;5.772;2022-07-23T00:17:56;4.70;;;3.33;;
56477;SDS011;42382;53.210;5.772;2022-07-23T00:20:22;6.50;;;3.60;;
56477;SDS011;42382;53.210;5.772;2022-07-23T00:22:51;6.97;;;3.40;;
56477;SDS011;42382;53.210;5.772;2022-07-23T00:25:20;4.18;;;3.33;;
56477;SDS011;42382;53.210;5.772;2022-07-23T00:27:50;7.80;;;3.60;;
56477;SDS011;42382;53.210;5.772;2022-07-23T00:30:15;8.70;;;4.32;;
56477;SDS011;42382;53.210;5.772;2022-07-23T00:32:44;6.07;;;4.38;;
56477;SDS011;42382;53.210;5.772;2022-07-23T00:35:21;7.07;;;3.85;;
56477;SDS011;42382;53.210;5.772;2022-07-23T00:37:47;7.03;;;4.40;;
56477;SDS011;42382;53.210;5.772;2022-07-23T00:40:13;6.80;;;4.70;;
56477;SDS011;42382;53.210;5.772;2022-07-23T00:42:39;6.47;;;4.85;;
56477;SDS011;42382;53.210;5.772;2022-07-23T00:45:05;4.63;;;4.05;;
56477;SDS011;42382;53.210;5.772;2022-07-23T00:47:31;5.85;;;4.50;;
56477;SDS011;42382;53.210;5.772;2022-07-23T00:49:57;5.20;;;4.20;;
56477;SDS011;42382;53.210;5.772;2022-07-23T00:52:23;7.70;;;4.28;;
56477;SDS011;42382;53.210;5.772;2022-07-23T00:54:48;6.68;;;4.20;;
56477;SDS011;42382;53.210;5.772;2022-07-23T00:57:14;7.03;;;5.00;;
56477;SDS011;42382;53.210;5.772;2022-07-23T00:59:40;5.88;;;4.50;;
56477;SDS011;42382;53.210;5.772;2022-07-23T01:02:07;8.55;;;4.95;;
56477;SDS011;42382;53.210;5.772;2022-07-23T01:04:32;7.10;;;4.47;;
56477;SDS011;42382;53.210;5.772;2022-07-23T01:06:58;6.53;;;4.65;;
56477;SDS011;42382;53.210;5.772;2022-07-23T01:09:24;6.88;;;4.30;;
56477;SDS011;42382;53.210;5.772;2022-07-23T01:11:51;6.18;;;4.95;;
56477;SDS011;42382;53.210;5.772;2022-07-23T01:14:18;6.50;;;4.63;;
56477;SDS011;42382;53.210;5.772;2022-07-23T01:16:45;8.27;;;4.65;;
56477;SDS011;42382;53.210;5.772;2022-07-23T01:19:12;9.10;;;5.05;;
56477;SDS011;42382;53.210;5.772;2022-07-23T01:21:40;6.57;;;4.50;;
56477;SDS011;42382;53.210;5.772;2022-07-23T01:24:07;8.75;;;5.22;;
56477;SDS011;42382;53.210;5.772;2022-07-23T01:26:34;10.70;;;5.10;;
56477;SDS011;42382;53.210;5.772;2022-07-23T01:29:01;11.05;;;6.28;;
56477;SDS011;42382;53.210;5.772;2022-07-23T01:31:27;10.82;;;6.28;;
56477;SDS011;42382;53.210;5.772;2022-07-23T01:33:53;8.75;;;5.30;;
56477;SDS011;42382;53.210;5.772;2022-07-23T01:36:18;6.50;;;4.35;;
56477;SDS011;42382;53.210;5.772;2022-07-23T01:38:44;8.30;;;5.00;;
56477;SDS011;42382;53.210;5.772;2022-07-23T01:41:09;9.52;;;5.30;;
56477;SDS011;42382;53.210;5.772;2022-07-23T01:43:35;7.13;;;4.45;;
56477;SDS011;42382;53.210;5.772;2022-07-23T01:46:01;6.80;;;4.90;;
56477;SDS011;42382;53.210;5.772;2022-07-23T01:48:26;11.23;;;5.20;;
56477;SDS011;42382;53.210;5.772;2022-07-23T01:50:52;9.10;;;4.88;;
56477;SDS011;42382;53.210;5.772;2022-07-23T01:53:17;9.90;;;5.25;;
56477;SDS011;42382;53.210;5.772;2022-07-23T01:55:43;6.80;;;4.63;;
56477;SDS011;42382;53.210;5.772;2022-07-23T01:58:09;5.65;;;4.30;;
56477;SDS011;42382;53.210;5.772;2022-07-23T02:00:34;6.82;;;4.35;;
56477;SDS011;42382;53.210;5.772;2022-07-23T02:03:00;6.45;;;3.85;;
56477;SDS011;42382;53.210;5.772;2022-07-23T02:05:26;6.53;;;3.65;;
56477;SDS011;42382;53.210;5.772;2022-07-23T02:07:54;4.32;;;3.92;;
56477;SDS011;42382;53.210;5.772;2022-07-23T02:10:20;7.78;;;3.92;;
56477;SDS011;42382;53.210;5.772;2022-07-23T02:12:46;7.50;;;3.80;;
56477;SDS011;42382;53.210;5.772;2022-07-23T02:15:11;4.05;;;3.53;;
56477;SDS011;42382;53.210;5.772;2022-07-23T02:17:37;4.25;;;3.33;;
56477;SDS011;42382;53.210;5.772;2022-07-23T02:20:03;6.32;;;3.45;;
56477;SDS011;42382;53.210;5.772;2022-07-23T02:22:29;6.25;;;3.22;;
56477;SDS011;42382;53.210;5.772;2022-07-23T02:24:55;4.00;;;2.85;;
56477;SDS011;42382;53.210;5.772;2022-07-23T02:27:21;4.47;;;2.78;;
56477;SDS011;42382;53.210;5.772;2022-07-23T02:29:46;6.22;;;3.38;;
56477;SDS011;42382;53.210;5.772;2022-07-23T02:32:12;6.03;;;3.10;;
56477;SDS011;42382;53.210;5.772;2022-07-23T02:34:38;4.43;;;3.13;;
56477;SDS011;42382;53.210;5.772;2022-07-23T02:37:03;4.97;;;3.20;;
56477;SDS011;42382;53.210;5.772;2022-07-23T02:39:29;5.30;;;3.10;;
56477;SDS011;42382;53.210;5.772;2022-07-23T02:41:55;6.07;;;3.15;;
56477;SDS011;42382;53.210;5.772;2022-07-23T02:44:20;4.50;;;3.20;;
56477;SDS011;42382;53.210;5.772;2022-07-23T02:46:46;3.40;;;3.10;;
56477;SDS011;42382;53.210;5.772;2022-07-23T02:49:12;5.97;;;3.38;;
56477;SDS011;42382;53.210;5.772;2022-07-23T02:51:37;6.40;;;3.50;;
56477;SDS011;42382;53.210;5.772;2022-07-23T02:54:03;5.50;;;2.90;;
56477;SDS011;42382;53.210;5.772;2022-07-23T02:56:28;7.25;;;3.58;;
56477;SDS011;42382;53.210;5.772;2022-07-23T02:58:54;4.25;;;2.85;;
56477;SDS011;42382;53.210;5.772;2022-07-23T03:01:19;6.55;;;3.67;;
56477;SDS011;42382;53.210;5.772;2022-07-23T03:03:45;5.85;;;2.90;;
56477;SDS011;42382;53.210;5.772;2022-07-23T03:06:10;4.25;;;2.55;;
56477;SDS011;42382;53.210;5.772;2022-07-23T03:08:37;6.15;;;3.13;;
56477;SDS011;42382;53.210;5.772;2022-07-23T03:11:02;3.95;;;2.50;;
56477;SDS011;42382;53.210;5.772;2022-07-23T03:13:28;4.22;;;2.80;;
56477;SDS011;42382;53.210;5.772;2022-07-23T03:15:54;2.70;;;2.50;;
56477;SDS011;42382;53.210;5.772;2022-07-23T03:18:20;5.15;;;2.97;;
56477;SDS011;42382;53.210;5.772;2022-07-23T03:20:45;7.88;;;3.03;;
56477;SDS011;42382;53.210;5.772;2022-07-23T03:23:11;4.95;;;3.08;;
56477;SDS011;42382;53.210;5.772;2022-07-23T03:25:36;6.88;;;3.47;;
56477;SDS011;42382;53.210;5.772;2022-07-23T03:28:02;4.85;;;3.25;;
56477;SDS011;42382;53.210;5.772;2022-07-23T03:30:28;7.43;;;3.13;;
56477;SDS011;42382;53.210;5.772;2022-07-23T03:32:53;5.03;;;2.72;;
56477;SDS011;42382;53.210;5.772;2022-07-23T03:35:19;4.38;;;2.75;;
56477;SDS011;42382;53.210;5.772;2022-07-23T03:37:44;6.57;;;2.88;;
56477;SDS011;42382;53.210;5.772;2022-07-23T03:40:10;3.80;;;3.28;;
56477;SDS011;42382;53.210;5.772;2022-07-23T03:42:36;6.93;;;4.35;;
56477;SDS011;42382;53.210;5.772;2022-07-23T03:45:03;7.38;;;3.50;;
56477;SDS011;42382;53.210;5.772;2022-07-23T03:47:29;5.75;;;3.42;;
56477;SDS011;42382;53.210;5.772;2022-07-23T03:49:55;5.57;;;3.58;;
56477;SDS011;42382;53.210;5.772;2022-07-23T03:52:20;4.75;;;3.38;;
56477;SDS011;42382;53.210;5.772;2022-07-23T03:54:46;5.38;;;3.20;;
56477;SDS011;42382;53.210;5.772;2022-07-23T03:57:11;4.70;;;3.30;;
56477;SDS011;42382;53.210;5.772;2022-07-23T03:59:37;6.82;;;3.83;;
56477;SDS011;42382;53.210;5.772;2022-07-23T04:02:02;4.65;;;3.47;;
56477;SDS011;42382;53.210;5.772;2022-07-23T04:04:28;5.43;;;3.60;;
56477;SDS011;42382;53.210;5.772;2022-07-23T04:06:53;5.93;;;4.28;;
56477;SDS011;42382;53.210;5.772;2022-07-23T04:09:19;3.83;;;3.22;;
56477;SDS011;42382;53.210;5.772;2022-07-23T04:11:44;5.32;;;3.35;;
56477;SDS011;42382;53.210;5.772;2022-07-23T04:14:10;7.90;;;3.60;;
56477;SDS011;42382;53.210;5.772;2022-07-23T04:16:36;6.95;;;3.45;;
56477;SDS011;42382;53.210;5.772;2022-07-23T04:19:01;7.47;;;3.25;;
56477;SDS011;42382;53.210;5.772;2022-07-23T04:21:29;5.00;;;3.22;;
56477;SDS011;42382;53.210;5.772;2022-07-23T04:23:55;4.22;;;3.38;;
56477;SDS011;42382;53.210;5.772;2022-07-23T04:26:20;5.50;;;3.10;;
56477;SDS011;42382;53.210;5.772;2022-07-23T04:28:46;4.57;;;3.33;;
56477;SDS011;42382;53.210;5.772;2022-07-23T04:31:12;6.45;;;3.60;;
56477;SDS011;42382;53.210;5.772;2022-07-23T04:33:37;4.50;;;3.38;;
56477;SDS011;42382;53.210;5.772;2022-07-23T04:36:03;4.65;;;3.15;;
56477;SDS011;42382;53.210;5.772;2022-07-23T04:38:29;5.78;;;3.67;;
56477;SDS011;42382;53.210;5.772;2022-07-23T04:40:54;5.20;;;3.55;;
56477;SDS011;42382;53.210;5.772;2022-07-23T04:43:20;4.28;;;2.90;;
56477;SDS011;42382;53.210;5.772;2022-07-23T04:45:48;6.45;;;2.90;;
56477;SDS011;42382;53.210;5.772;2022-07-23T04:48:14;4.60;;;2.67;;
56477;SDS011;42382;53.210;5.772;2022-07-23T04:50:40;5.30;;;2.75;;
56477;SDS011;42382;53.210;5.772;2022-07-23T04:53:05;5.47;;;3.20;;
56477;SDS011;42382;53.210;5.772;2022-07-23T04:55:34;4.57;;;3.08;;
56477;SDS011;42382;53.210;5.772;2022-07-23T04:57:59;5.50;;;3.75;;
56477;SDS011;42382;53.210;5.772;2022-07-23T05:00:25;4.28;;;3.30;;
56477;SDS011;42382;53.210;5.772;2022-07-23T05:02:51;3.95;;;2.92;;
56477;SDS011;42382;53.210;5.772;2022-07-23T05:05:16;4.38;;;2.88;;
56477;SDS011;42382;53.210;5.772;2022-07-23T05:07:42;5.93;;;3.15;;
56477;SDS011;42382;53.210;5.772;2022-07-23T05:10:07;7.18;;;3.72;;
56477;SDS011;42382;53.210;5.772;2022-07-23T05:12:33;5.90;;;3.33;;
56477;SDS011;42382;53.210;5.772;2022-07-23T05:14:59;6.85;;;3.17;;
56477;SDS011;42382;53.210;5.772;2022-07-23T05:17:24;3.28;;;2.78;;
56477;SDS011;42382;53.210;5.772;2022-07-23T05:19:50;7.22;;;3.25;;
56477;SDS011;42382;53.210;5.772;2022-07-23T05:22:15;5.05;;;2.40;;
56477;SDS011;42382;53.210;5.772;2022-07-23T05:24:41;3.13;;;1.50;;
56477;SDS011;42382;53.210;5.772;2022-07-23T05:27:08;3.90;;;1.58;;
56477;SDS011;42382;53.210;5.772;2022-07-23T05:29:33;3.42;;;1.63;;
56477;SDS011;42382;53.210;5.772;2022-07-23T05:31:59;3.05;;;1.45;;
56477;SDS011;42382;53.210;5.772;2022-07-23T05:34:25;4.82;;;1.63;;
56477;SDS011;42382;53.210;5.772;2022-07-23T05:36:51;1.98;;;1.67;;
56477;SDS011;42382;53.210;5.772;2022-07-23T05:39:16;2.25;;;0.82;;
56477;SDS011;42382;53.210;5.772;2022-07-23T05:41:42;2.60;;;1.30;;
56477;SDS011;42382;53.210;5.772;2022-07-23T05:44:07;4.28;;;1.10;;
56477;SDS011;42382;53.210;5.772;2022-07-23T05:46:33;1.63;;;1.35;;
56477;SDS011;42382;53.210;5.772;2022-07-23T05:48:58;3.30;;;0.88;;
56477;SDS011;42382;53.210;5.772;2022-07-23T05:51:24;3.00;;;0.80;;
56477;SDS011;42382;53.210;5.772;2022-07-23T05:53:50;2.08;;;0.70;;
56477;SDS011;42382;53.210;5.772;2022-07-23T05:56:18;4.65;;;0.50;;
56477;SDS011;42382;53.210;5.772;2022-07-23T05:58:44;2.50;;;0.40;;
56477;SDS011;42382;53.210;5.772;2022-07-23T06:01:10;2.83;;;0.40;;
56477;SDS011;42382;53.210;5.772;2022-07-23T06:03:36;3.45;;;0.45;;
56477;SDS011;42382;53.210;5.772;2022-07-23T06:06:03;2.35;;;0.40;;
56477;SDS011;42382;53.210;5.772;2022-07-23T06:08:29;3.03;;;0.30;;
56477;SDS011;42382;53.210;5.772;2022-07-23T06:10:55;2.78;;;0.28;;
56477;SDS011;42382;53.210;5.772;2022-07-23T06:13:20;5.72;;;0.20;;
56477;SDS011;42382;53.210;5.772;2022-07-23T06:15:46;0.93;;;0.13;;
56477;SDS011;42382;53.210;5.772;2022-07-23T06:18:11;0.50;;;0.10;;
56477;SDS011;42382;53.210;5.772;2022-07-23T06:20:37;1.67;;;0.10;;
56477;SDS011;42382;53.210;5.772;2022-07-23T06:23:03;0.85;;;0.20;;
56477;SDS011;42382;53.210;5.772;2022-07-23T06:25:29;1.52;;;0.10;;
56477;SDS011;42382;53.210;5.772;2022-07-23T06:27:54;1.95;;;0.63;;
56477;SDS011;42382;53.210;5.772;2022-07-23T06:30:20;0.77;;;0.10;;
56477;SDS011;42382;53.210;5.772;2022-07-23T06:32:46;0.50;;;0.10;;
56477;SDS011;42382;53.210;5.772;2022-07-23T06:35:12;1.27;;;0.10;;
56477;SDS011;42382;53.210;5.772;2022-07-23T06:37:38;1.13;;;0.20;;
56477;SDS011;42382;53.210;5.772;2022-07-23T06:40:03;0.55;;;0.10;;
56477;SDS011;42382;53.210;5.772;2022-07-23T06:42:29;0.40;;;0.10;;
56477;SDS011;42382;53.210;5.772;2022-07-23T06:44:55;0.85;;;0.17;;
56477;SDS011;42382;53.210;5.772;2022-07-23T06:47:21;0.73;;;0.10;;
56477;SDS011;42382;53.210;5.772;2022-07-23T06:49:46;0.88;;;0.10;;
56477;SDS011;42382;53.210;5.772;2022-07-23T06:52:12;1.05;;;0.10;;
56477;SDS011;42382;53.210;5.772;2022-07-23T06:54:37;0.55;;;0.10;;
56477;SDS011;42382;53.210;5.772;2022-07-23T06:57:03;0.50;;;0.10;;
56477;SDS011;42382;53.210;5.772;2022-07-23T06:59:29;0.40;;;0.10;;
56477;SDS011;42382;53.210;5.772;2022-07-23T07:01:54;2.00;;;0.10;;
56477;SDS011;42382;53.210;5.772;2022-07-23T07:04:20;0.40;;;0.00;;
56477;SDS011;42382;53.210;5.772;2022-07-23T07:06:45;1.27;;;0.10;;
56477;SDS011;42382;53.210;5.772;2022-07-23T07:09:11;1.73;;;0.10;;
56477;SDS011;42382;53.210;5.772;2022-07-23T07:11:36;2.42;;;0.45;;
56477;SDS011;42382;53.210;5.772;2022-07-23T07:14:02;1.25;;;0.10;;
56477;SDS011;42382;53.210;5.772;2022-07-23T07:16:29;0.20;;;0.08;;
56477;SDS011;42382;53.210;5.772;2022-07-23T07:18:55;1.23;;;0.10;;
56477;SDS011;42382;53.210;5.772;2022-07-23T07:21:20;1.35;;;0.20;;
56477;SDS011;42382;53.210;5.772;2022-07-23T07:23:46;0.60;;;0.05;;
56477;SDS011;42382;53.210;5.772;2022-07-23T07:26:11;2.75;;;0.10;;
56477;SDS011;42382;53.210;5.772;2022-07-23T07:28:37;1.00;;;0.20;;
56477;SDS011;42382;53.210;5.772;2022-07-23T07:31:03;1.55;;;0.10;;
56477;SDS011;42382;53.210;5.772;2022-07-23T07:33:28;3.40;;;0.10;;
56477;SDS011;42382;53.210;5.772;2022-07-23T07:35:54;0.80;;;0.10;;
56477;SDS011;42382;53.210;5.772;2022-07-23T07:38:20;1.08;;;0.20;;
56477;SDS011;42382;53.210;5.772;2022-07-23T07:40:45;0.50;;;0.10;;
56477;SDS011;42382;53.210;5.772;2022-07-23T07:43:11;1.27;;;0.38;;
56477;SDS011;42382;53.210;5.772;2022-07-23T07:45:36;1.75;;;0.00;;
56477;SDS011;42382;53.210;5.772;2022-07-23T07:48:02;0.98;;;0.00;;
56477;SDS011;42382;53.210;5.772;2022-07-23T07:50:28;0.77;;;0.10;;
56477;SDS011;42382;53.210;5.772;2022-07-23T07:52:53;2.25;;;0.20;;
56477;SDS011;42382;53.210;5.772;2022-07-23T07:55:19;0.73;;;0.10;;
56477;SDS011;42382;53.210;5.772;2022-07-23T07:57:45;1.23;;;0.10;;
56477;SDS011;42382;53.210;5.772;2022-07-23T08:00:10;0.50;;;0.10;;
56477;SDS011;42382;53.210;5.772;2022-07-23T08:02:40;2.45;;;0.10;;
56477;SDS011;42382;53.210;5.772;2022-07-23T08:05:10;1.38;;;0.10;;
56477;SDS011;42382;53.210;5.772;2022-07-23T08:07:36;1.23;;;0.10;;
56477;SDS011;42382;53.210;5.772;2022-07-23T08:10:04;0.88;;;0.10;;
56477;SDS011;42382;53.210;5.772;2022-07-23T08:12:37;2.10;;;0.10;;
56477;SDS011;42382;53.210;5.772;2022-07-23T08:15:09;4.30;;;0.25;;
56477;SDS011;42382;53.210;5.772;2022-07-23T08:17:35;1.33;;;0.10;;
56477;SDS011;42382;53.210;5.772;2022-07-23T08:20:02;2.20;;;0.10;;
56477;SDS011;42382;53.210;5.772;2022-07-23T08:25:35;1.48;;;0.10;;
56477;SDS011;42382;53.210;5.772;2022-07-23T08:28:06;0.68;;;0.10;;
56477;SDS011;42382;53.210;5.772;2022-07-23T08:30:33;2.75;;;0.20;;
56477;SDS011;42382;53.210;5.772;2022-07-23T08:33:07;1.38;;;0.10;;
56477;SDS011;42382;53.210;5.772;2022-07-23T08:35:49;1.25;;;0.30;;
56477;SDS011;42382;53.210;5.772;2022-07-23T08:38:18;0.50;;;0.10;;
56477;SDS011;42382;53.210;5.772;2022-07-23T08:40:50;0.20;;;0.10;;
56477;SDS011;42382;53.210;5.772;2022-07-23T08:43:19;0.60;;;0.10;;
56477;SDS011;42382;53.210;5.772;2022-07-23T08:45:48;1.10;;;0.10;;
56477;SDS011;42382;53.210;5.772;2022-07-23T08:48:16;1.17;;;0.10;;
56477;SDS011;42382;53.210;5.772;2022-07-23T08:50:46;1.77;;;0.10;;
56477;SDS011;42382;53.210;5.772;2022-07-23T08:53:16;1.38;;;0.10;;
56477;SDS011;42382;53.210;5.772;2022-07-23T08:55:44;1.55;;;0.10;;
56477;SDS011;42382;53.210;5.772;2022-07-23T08:58:10;1.45;;;0.10;;
56477;SDS011;42382;53.210;5.772;2022-07-23T09:00:36;2.28;;;0.22;;
56477;SDS011;42382;53.210;5.772;2022-07-23T09:03:02;0.30;;;0.10;;
56477;SDS011;42382;53.210;5.772;2022-07-23T09:05:27;1.65;;;0.10;;
56477;SDS011;42382;53.210;5.772;2022-07-23T09:10:58;1.02;;;0.10;;
56477;SDS011;42382;53.210;5.772;2022-07-23T09:16:04;2.40;;;0.10;;
56477;SDS011;42382;53.210;5.772;2022-07-23T09:18:48;0.90;;;0.10;;
56477;SDS011;42382;53.210;5.772;2022-07-23T09:21:20;1.88;;;0.10;;
56477;SDS011;42382;53.210;5.772;2022-07-23T09:23:52;2.88;;;0.20;;
56477;SDS011;42382;53.210;5.772;2022-07-23T09:26:24;1.33;;;0.10;;
56477;SDS011;42382;53.210;5.772;2022-07-23T09:28:51;0.50;;;0.10;;
56477;SDS011;42382;53.210;5.772;2022-07-23T09:31:18;1.42;;;0.10;;
56477;SDS011;42382;53.210;5.772;2022-07-23T09:33:43;1.33;;;0.10;;
56477;SDS011;42382;53.210;5.772;2022-07-23T09:36:09;0.80;;;0.10;;
56477;SDS011;42382;53.210;5.772;2022-07-23T09:38:34;3.42;;;0.10;;
56477;SDS011;42382;53.210;5.772;2022-07-23T09:41:13;2.55;;;0.10;;
56477;SDS011;42382;53.210;5.772;2022-07-23T09:43:39;0.52;;;0.10;;
56477;SDS011;42382;53.210;5.772;2022-07-23T09:46:21;1.70;;;0.30;;
56477;SDS011;42382;53.210;5.772;2022-07-23T09:48:49;0.80;;;0.13;;
56477;SDS011;42382;53.210;5.772;2022-07-23T09:51:16;1.15;;;0.20;;
56477;SDS011;42382;53.210;5.772;2022-07-23T09:54:01;1.33;;;0.10;;
56477;SDS011;42382;53.210;5.772;2022-07-23T09:56:27;2.65;;;0.22;;
56477;SDS011;42382;53.210;5.772;2022-07-23T09:58:54;4.10;;;0.10;;
56477;SDS011;42382;53.210;5.772;2022-07-23T10:01:48;0.60;;;0.10;;
56477;SDS011;42382;53.210;5.772;2022-07-23T10:04:16;1.13;;;0.15;;
56477;SDS011;42382;53.210;5.772;2022-07-23T10:06:43;1.48;;;0.10;;
56477;SDS011;42382;53.210;5.772;2022-07-23T10:09:10;0.85;;;0.10;;
56477;SDS011;42382;53.210;5.772;2022-07-23T10:11:38;1.20;;;0.10;;
56477;SDS011;42382;53.210;5.772;2022-07-23T10:14:04;1.67;;;0.10;;
56477;SDS011;42382;53.210;5.772;2022-07-23T10:16:31;1.67;;;0.10;;
56477;SDS011;42382;53.210;5.772;2022-07-23T10:18:56;1.08;;;0.10;;
56477;SDS011;42382;53.210;5.772;2022-07-23T10:21:41;1.50;;;0.13;;
56477;SDS011;42382;53.210;5.772;2022-07-23T10:24:17;0.90;;;0.10;;
56477;SDS011;42382;53.210;5.772;2022-07-23T10:27:12;0.95;;;0.10;;
56477;SDS011;42382;53.210;5.772;2022-07-23T10:29:58;1.40;;;0.20;;
56477;SDS011;42382;53.210;5.772;2022-07-23T10:38:07;0.88;;;0.10;;
56477;SDS011;42382;53.210;5.772;2022-07-23T10:40:37;0.45;;;0.10;;
56477;SDS011;42382;53.210;5.772;2022-07-23T10:43:22;0.40;;;0.10;;
56477;SDS011;42382;53.210;5.772;2022-07-23T10:45:48;1.05;;;0.10;;
56477;SDS011;42382;53.210;5.772;2022-07-23T10:48:15;1.30;;;0.10;;
56477;SDS011;42382;53.210;5.772;2022-07-23T10:50:42;1.10;;;0.10;;
56477;SDS011;42382;53.210;5.772;2022-07-23T10:53:10;1.52;;;0.17;;
56477;SDS011;42382;53.210;5.772;2022-07-23T10:55:43;1.55;;;0.20;;
56477;SDS011;42382;53.210;5.772;2022-07-23T10:58:19;2.25;;;0.10;;
56477;SDS011;42382;53.210;5.772;2022-07-23T11:04:01;3.80;;;0.20;;
56477;SDS011;42382;53.210;5.772;2022-07-23T11:09:23;0.73;;;0.20;;
56477;SDS011;42382;53.210;5.772;2022-07-23T11:11:48;1.25;;;0.10;;
56477;SDS011;42382;53.210;5.772;2022-07-23T11:14:14;0.22;;;0.00;;
56477;SDS011;42382;53.210;5.772;2022-07-23T11:16:46;0.40;;;0.10;;
56477;SDS011;42382;53.210;5.772;2022-07-23T11:19:13;0.73;;;0.10;;
56477;SDS011;42382;53.210;5.772;2022-07-23T11:24:14;2.50;;;0.73;;
56477;SDS011;42382;53.210;5.772;2022-07-23T11:26:45;0.30;;;0.10;;
56477;SDS011;42382;53.210;5.772;2022-07-23T11:32:37;0.98;;;0.10;;
56477;SDS011;42382;53.210;5.772;2022-07-23T11:34:45;1.08;;;0.10;;
56477;SDS011;42382;53.210;5.772;2022-07-23T11:37:15;0.52;;;0.20;;
56477;SDS011;42382;53.210;5.772;2022-07-23T11:40:08;0.88;;;0.10;;
56477;SDS011;42382;53.210;5.772;2022-07-23T11:42:36;1.50;;;0.32;;
56477;SDS011;42382;53.210;5.772;2022-07-23T11:45:16;0.50;;;0.10;;
56477;SDS011;42382;53.210;5.772;2022-07-23T11:47:41;1.02;;;0.25;;
56477;SDS011;42382;53.210;5.772;2022-07-23T11:50:07;0.98;;;0.13;;
56477;SDS011;42382;53.210;5.772;2022-07-23T11:52:33;2.47;;;0.20;;
56477;SDS011;42382;53.210;5.772;2022-07-23T11:55:03;0.77;;;0.20;;
56477;SDS011;42382;53.210;5.772;2022-07-23T11:57:35;1.33;;;0.20;;
56477;SDS011;42382;53.210;5.772;2022-07-23T12:00:07;1.60;;;0.10;;
56477;SDS011;42382;53.210;5.772;2022-07-23T12:02:35;0.75;;;0.10;;
56477;SDS011;42382;53.210;5.772;2022-07-23T12:05:04;1.27;;;0.20;;
56477;SDS011;42382;53.210;5.772;2022-07-23T12:07:35;0.60;;;0.20;;
56477;SDS011;42382;53.210;5.772;2022-07-23T12:10:13;0.50;;;0.20;;
56477;SDS011;42382;53.210;5.772;2022-07-23T12:12:55;1.42;;;0.17;;
56477;SDS011;42382;53.210;5.772;2022-07-23T12:15:29;0.80;;;0.10;;
56477;SDS011;42382;53.210;5.772;2022-07-23T12:17:58;1.52;;;0.20;;
56477;SDS011;42382;53.210;5.772;2022-07-23T12:20:26;2.70;;;0.30;;
56477;SDS011;42382;53.210;5.772;2022-07-23T12:22:58;1.10;;;0.20;;
56477;SDS011;42382;53.210;5.772;2022-07-23T12:25:44;2.30;;;0.20;;
56477;SDS011;42382;53.210;5.772;2022-07-23T12:33:06;0.73;;;0.10;;
56477;SDS011;42382;53.210;5.772;2022-07-23T12:38:03;2.08;;;0.15;;
56477;SDS011;42382;53.210;5.772;2022-07-23T12:43:07;1.17;;;0.35;;
56477;SDS011;42382;53.210;5.772;2022-07-23T12:48:30;1.88;;;0.20;;
56477;SDS011;42382;53.210;5.772;2022-07-23T12:51:02;2.35;;;0.30;;
56477;SDS011;42382;53.210;5.772;2022-07-23T12:53:31;2.80;;;0.20;;
56477;SDS011;42382;53.210;5.772;2022-07-23T12:58:48;2.00;;;0.30;;
56477;SDS011;42382;53.210;5.772;2022-07-23T13:01:22;2.40;;;0.30;;
56477;SDS011;42382;53.210;5.772;2022-07-23T13:04:01;2.05;;;0.30;;
56477;SDS011;42382;53.210;5.772;2022-07-23T13:06:28;2.00;;;0.22;;
56477;SDS011;42382;53.210;5.772;2022-07-23T13:08:55;0.98;;;0.20;;
56477;SDS011;42382;53.210;5.772;2022-07-23T13:11:21;1.60;;;0.20;;
56477;SDS011;42382;53.210;5.772;2022-07-23T13:13:47;2.00;;;0.30;;
56477;SDS011;42382;53.210;5.772;2022-07-23T13:16:12;0.93;;;0.20;;
56477;SDS011;42382;53.210;5.772;2022-07-23T13:18:38;2.05;;;0.20;;
56477;SDS011;42382;53.210;5.772;2022-07-23T13:21:03;1.65;;;0.28;;
56477;SDS011;42382;53.210;5.772;2022-07-23T13:23:29;1.77;;;0.55;;
56477;SDS011;42382;53.210;5.772;2022-07-23T13:25:55;0.75;;;0.32;;
56477;SDS011;42382;53.210;5.772;2022-07-23T13:28:21;3.08;;;0.40;;
56477;SDS011;42382;53.210;5.772;2022-07-23T13:30:48;1.67;;;0.50;;
56477;SDS011;42382;53.210;5.772;2022-07-23T13:33:15;2.92;;;0.40;;
56477;SDS011;42382;53.210;5.772;2022-07-23T13:35:42;1.48;;;0.30;;
56477;SDS011;42382;53.210;5.772;2022-07-23T13:38:08;1.10;;;0.30;;
56477;SDS011;42382;53.210;5.772;2022-07-23T13:40:35;2.80;;;0.52;;
56477;SDS011;42382;53.210;5.772;2022-07-23T13:43:04;1.70;;;0.47;;
56477;SDS011;42382;53.210;5.772;2022-07-23T13:45:31;2.90;;;0.40;;
56477;SDS011;42382;53.210;5.772;2022-07-23T13:47:58;8.43;;;2.75;;
56477;SDS011;42382;53.210;5.772;2022-07-23T13:50:24;2.15;;;0.60;;
56477;SDS011;42382;53.210;5.772;2022-07-23T13:52:49;1.77;;;0.30;;
56477;SDS011;42382;53.210;5.772;2022-07-23T13:55:15;1.23;;;0.40;;
56477;SDS011;42382;53.210;5.772;2022-07-23T13:57:41;2.95;;;0.80;;
56477;SDS011;42382;53.210;5.772;2022-07-23T14:00:07;1.02;;;0.40;;
56477;SDS011;42382;53.210;5.772;2022-07-23T14:02:35;1.88;;;0.50;;
56477;SDS011;42382;53.210;5.772;2022-07-23T14:05:03;1.60;;;0.30;;
56477;SDS011;42382;53.210;5.772;2022-07-23T14:07:30;2.25;;;0.50;;
56477;SDS011;42382;53.210;5.772;2022-07-23T14:09:55;3.13;;;0.40;;
56477;SDS011;42382;53.210;5.772;2022-07-23T14:12:21;2.47;;;0.40;;
56477;SDS011;42382;53.210;5.772;2022-07-23T14:14:46;3.08;;;0.55;;
56477;SDS011;42382;53.210;5.772;2022-07-23T14:17:12;3.97;;;0.77;;
56477;SDS011;42382;53.210;5.772;2022-07-23T14:19:38;1.23;;;0.50;;
56477;SDS011;42382;53.210;5.772;2022-07-23T14:22:04;3.40;;;0.40;;
56477;SDS011;42382;53.210;5.772;2022-07-23T14:24:29;3.17;;;0.70;;
56477;SDS011;42382;53.210;5.772;2022-07-23T14:26:55;2.53;;;0.50;;
56477;SDS011;42382;53.210;5.772;2022-07-23T14:29:20;2.22;;;0.55;;
56477;SDS011;42382;53.210;5.772;2022-07-23T14:31:46;2.42;;;0.30;;
56477;SDS011;42382;53.210;5.772;2022-07-23T14:34:12;3.65;;;0.70;;
56477;SDS011;42382;53.210;5.772;2022-07-23T14:36:37;2.30;;;0.50;;
56477;SDS011;42382;53.210;5.772;2022-07-23T14:39:03;3.22;;;0.80;;
56477;SDS011;42382;53.210;5.772;2022-07-23T14:41:29;2.88;;;0.52;;
56477;SDS011;42382;53.210;5.772;2022-07-23T14:43:54;1.10;;;0.47;;
56477;SDS011;42382;53.210;5.772;2022-07-23T14:46:20;2.58;;;0.60;;
56477;SDS011;42382;53.210;5.772;2022-07-23T14:48:46;3.00;;;0.65;;
56477;SDS011;42382;53.210;5.772;2022-07-23T14:51:12;3.13;;;0.38;;
56477;SDS011;42382;53.210;5.772;2022-07-23T14:53:37;1.52;;;0.35;;
56477;SDS011;42382;53.210;5.772;2022-07-23T14:56:04;2.90;;;0.60;;
56477;SDS011;42382;53.210;5.772;2022-07-23T14:58:29;2.95;;;1.20;;
56477;SDS011;42382;53.210;5.772;2022-07-23T15:00:55;3.17;;;1.20;;
56477;SDS011;42382;53.210;5.772;2022-07-23T15:03:20;4.55;;;0.60;;
56477;SDS011;42382;53.210;5.772;2022-07-23T15:05:46;1.05;;;0.50;;
56477;SDS011;42382;53.210;5.772;2022-07-23T15:08:12;1.88;;;0.50;;
56477;SDS011;42382;53.210;5.772;2022-07-23T15:10:37;2.08;;;0.40;;
56477;SDS011;42382;53.210;5.772;2022-07-23T15:13:03;2.05;;;0.40;;
56477;SDS011;42382;53.210;5.772;2022-07-23T15:15:29;4.00;;;0.43;;
56477;SDS011;42382;53.210;5.772;2022-07-23T15:17:55;3.67;;;1.08;;
56477;SDS011;42382;53.210;5.772;2022-07-23T15:20:20;1.55;;;0.90;;
56477;SDS011;42382;53.210;5.772;2022-07-23T15:22:46;2.30;;;0.63;;
56477;SDS011;42382;53.210;5.772;2022-07-23T15:25:13;2.25;;;0.60;;
56477;SDS011;42382;53.210;5.772;2022-07-23T15:27:38;2.45;;;0.52;;
56477;SDS011;42382;53.210;5.772;2022-07-23T15:30:05;3.70;;;0.98;;